createdAt,value
2018-04-02T00:01:34.159Z,21.37
2018-04-02T00:04:00.574Z,19.40
2018-04-02T00:06:26.904Z,20.03
2018-04-02T00:08:53.269Z,25.63
2018-04-02T00:11:19.667Z,20.50
2018-04-02T00:13:46.205Z,23.97
2018-04-02T00:16:12.594Z,32.80
2018-04-02T00:18:39.700Z,21.07
2018-04-02T00:21:06.088Z,19.63
2018-04-02T00:23:32.424Z,19.63
2018-04-02T00:25:58.756Z,23.23
2018-04-02T00:28:25.133Z,21.17
2018-04-02T00:30:52.225Z,22.67
2018-04-02T00:33:18.610Z,21.30
2018-04-02T00:35:44.973Z,20.83
2018-04-02T00:38:11.456Z,19.27
2018-04-02T00:40:37.812Z,19.27
2018-04-02T00:43:04.894Z,26.80
2018-04-02T00:45:31.265Z,20.00
2018-04-02T00:47:57.620Z,21.50
2018-04-02T00:50:24.761Z,20.50
2018-04-02T00:52:51.151Z,21.83
2018-04-02T00:55:17.507Z,20.53
2018-04-02T00:57:43.907Z,23.10
2018-04-02T01:00:12.481Z,18.43
2018-04-02T01:02:38.923Z,20.00
2018-04-02T01:05:05.312Z,25.87
2018-04-02T01:07:32.435Z,19.60
2018-04-02T01:09:59.593Z,19.30
2018-04-02T01:12:25.987Z,21.03
2018-04-02T01:14:52.363Z,20.50
2018-04-02T01:17:19.536Z,18.07
2018-04-02T01:19:46.656Z,18.03
2018-04-02T01:22:13.021Z,23.50
2018-04-02T01:24:39.398Z,20.70
2018-04-02T01:27:05.818Z,20.77
2018-04-02T01:29:32.199Z,22.50
2018-04-02T01:31:58.602Z,25.30
2018-04-02T01:34:24.973Z,23.33
2018-04-02T01:36:51.579Z,23.40
2018-04-02T01:39:17.927Z,21.83
2018-04-02T01:41:45.031Z,21.00
2018-04-02T01:44:11.434Z,21.77
2018-04-02T01:46:37.853Z,20.13
2018-04-02T01:49:04.177Z,18.27
2018-04-02T01:51:30.708Z,19.53
2018-04-02T01:53:57.064Z,18.93
2018-04-02T01:56:23.399Z,18.30
2018-04-02T01:58:49.998Z,22.63
2018-04-02T02:01:16.345Z,19.90
2018-04-02T02:03:42.701Z,22.70
2018-04-02T02:06:09.074Z,21.97
2018-04-02T02:08:35.433Z,20.30
2018-04-02T02:11:01.838Z,22.67
2018-04-02T02:13:28.956Z,20.67
2018-04-02T02:15:55.318Z,21.60
2018-04-02T02:18:22.697Z,21.80
2018-04-02T02:20:49.064Z,22.67
2018-04-02T02:23:15.415Z,23.50
2018-04-02T02:25:41.800Z,20.60
2018-04-02T02:28:08.205Z,22.60
2018-04-02T02:30:35.373Z,22.27
2018-04-02T02:33:01.710Z,19.30
2018-04-02T02:35:28.074Z,25.17
2018-04-02T02:37:54.425Z,23.23
2018-04-02T02:40:21.523Z,22.30
2018-04-02T02:42:47.902Z,20.23
2018-04-02T02:45:14.271Z,22.43
2018-04-02T02:47:40.661Z,20.87
2018-04-02T02:50:07.049Z,20.57
2018-04-02T02:52:33.417Z,21.07
2018-04-02T02:54:59.760Z,24.77
2018-04-02T02:57:26.389Z,26.10
2018-04-02T02:59:52.725Z,23.27
2018-04-02T03:02:19.836Z,25.20
2018-04-02T03:04:46.234Z,23.70
2018-04-02T03:07:12.628Z,21.97
2018-04-02T03:09:39.046Z,25.00
2018-04-02T03:12:05.398Z,24.17
2018-04-02T03:14:32.495Z,22.60
2018-04-02T03:16:58.860Z,23.30
2018-04-02T03:19:25.211Z,21.97
2018-04-02T03:21:51.839Z,27.13
2018-04-02T03:24:18.172Z,20.47
2018-04-02T03:26:44.500Z,23.60
2018-04-02T03:29:10.852Z,21.60
2018-04-02T03:31:37.927Z,22.07
2018-04-02T03:34:04.289Z,24.30
2018-04-02T03:36:30.656Z,24.27
2018-04-02T03:38:57.719Z,23.80
2018-04-02T03:41:24.105Z,19.33
2018-04-02T03:43:50.455Z,22.00
2018-04-02T03:46:16.798Z,27.90
2018-04-02T03:48:43.935Z,26.53
2018-04-02T03:51:10.303Z,26.20
2018-04-02T03:53:36.657Z,29.63
2018-04-02T03:56:03.004Z,23.70
2018-04-02T03:58:30.153Z,22.57
2018-04-02T04:00:56.511Z,22.70
2018-04-02T04:03:23.593Z,25.37
2018-04-02T04:05:49.977Z,23.97
2018-04-02T04:08:17.136Z,24.03
2018-04-02T04:10:43.520Z,23.00
2018-04-02T04:13:09.886Z,23.00
2018-04-02T04:15:37.005Z,24.80
2018-04-02T04:18:03.375Z,24.80
2018-04-02T04:20:30.496Z,28.23
2018-04-02T04:22:56.839Z,25.20
2018-04-02T04:25:23.293Z,25.50
2018-04-02T04:27:50.502Z,23.90
2018-04-02T04:30:16.856Z,24.13
2018-04-02T04:32:43.233Z,27.97
2018-04-02T04:35:09.639Z,22.73
2018-04-02T04:37:36.763Z,29.70
2018-04-02T04:40:03.118Z,27.37
2018-04-02T04:42:30.222Z,26.90
2018-04-02T04:44:56.564Z,23.67
2018-04-02T04:47:22.921Z,23.90
2018-04-02T04:49:49.295Z,21.07
2018-04-02T04:52:15.638Z,23.17
2018-04-02T04:54:41.999Z,25.13
2018-04-02T04:57:09.114Z,26.20
2018-04-02T04:59:35.488Z,27.40
2018-04-02T05:02:02.574Z,25.30
2018-04-02T05:04:28.943Z,26.70
2018-04-02T05:06:55.321Z,24.77
2018-04-02T05:09:21.695Z,28.00
2018-04-02T05:11:48.102Z,29.13
2018-04-02T05:14:14.452Z,23.10
2018-04-02T05:16:40.815Z,28.30
2018-04-02T05:19:07.949Z,27.80
2018-04-02T05:21:34.355Z,24.90
2018-04-02T05:24:00.711Z,26.77
2018-04-02T05:26:27.078Z,21.93
2018-04-02T05:28:54.157Z,24.40
2018-04-02T05:31:20.512Z,27.10
2018-04-02T05:33:46.860Z,22.70
2018-04-02T05:36:13.251Z,25.10
2018-04-02T05:38:39.587Z,24.37
2018-04-02T05:41:05.973Z,25.90
2018-04-02T05:43:32.317Z,23.20
2018-04-02T05:45:58.720Z,20.73
2018-04-02T05:48:25.848Z,27.33
2018-04-02T05:50:52.945Z,26.47
2018-04-02T05:53:19.326Z,20.00
2018-04-02T05:55:46.434Z,23.17
2018-04-02T05:58:12.834Z,26.13
2018-04-02T06:00:39.234Z,23.70
2018-04-02T06:03:05.632Z,20.93
2018-04-02T06:05:31.992Z,24.07
2018-04-02T06:07:58.394Z,21.43
2018-04-02T06:10:24.775Z,22.33
2018-04-02T06:12:51.204Z,20.53
2018-04-02T06:15:18.365Z,24.57
2018-04-02T06:17:44.728Z,27.57
2018-04-02T06:20:11.099Z,19.27
2018-04-02T06:22:37.479Z,23.67
2018-04-02T06:25:04.034Z,18.77
2018-04-02T06:27:30.422Z,18.00
2018-04-02T06:29:56.800Z,19.57
2018-04-02T06:32:23.235Z,20.73
2018-04-02T06:34:50.384Z,17.30
2018-04-02T06:37:16.919Z,20.43
2018-04-02T06:39:44.055Z,20.27
2018-04-02T06:42:10.423Z,19.37
2018-04-02T06:44:36.809Z,23.37
2018-04-02T06:47:03.204Z,18.93
2018-04-02T06:49:29.594Z,19.27
2018-04-02T06:51:55.964Z,18.20
2018-04-02T06:54:23.076Z,19.63
2018-04-02T06:56:49.476Z,16.37
2018-04-02T06:59:15.824Z,21.23
2018-04-02T07:01:42.189Z,19.43
2018-04-02T07:04:08.560Z,20.63
2018-04-02T07:06:35.066Z,18.00
2018-04-02T07:09:02.202Z,16.63
2018-04-02T07:11:28.554Z,18.60
2018-04-02T07:13:55.178Z,21.03
2018-04-02T07:16:22.256Z,18.30
2018-04-02T07:18:48.600Z,17.20
2018-04-02T07:21:14.981Z,16.57
2018-04-02T07:23:41.359Z,17.77
2018-04-02T07:26:07.708Z,16.13
2018-04-02T07:28:34.083Z,17.00
2018-04-02T07:31:01.214Z,15.30
2018-04-02T07:33:27.578Z,14.87
2018-04-02T07:35:53.925Z,16.90
2018-04-02T07:38:20.452Z,16.90
2018-04-02T07:40:46.863Z,15.90
2018-04-02T07:43:13.939Z,15.50
2018-04-02T07:45:40.319Z,16.10
2018-04-02T07:48:06.666Z,16.50
2018-04-02T07:50:33.809Z,13.90
2018-04-02T07:53:00.973Z,14.97
2018-04-02T07:55:28.050Z,14.63
2018-04-02T07:57:54.420Z,15.07
2018-04-02T08:00:20.812Z,16.03
2018-04-02T08:02:47.379Z,15.03
2018-04-02T08:05:14.808Z,16.40
2018-04-02T08:07:41.314Z,12.53
2018-04-02T08:10:07.770Z,13.47
2018-04-02T08:12:34.140Z,13.07
2018-04-02T08:15:01.526Z,12.83
2018-04-02T08:17:28.671Z,14.70
2018-04-02T08:19:55.792Z,12.37
2018-04-02T08:22:22.250Z,12.63
2018-04-02T08:24:49.342Z,12.47
2018-04-02T08:27:15.960Z,11.53
2018-04-02T08:29:42.342Z,13.23
2018-04-02T08:32:08.686Z,12.70
2018-04-02T08:34:35.827Z,11.70
2018-04-02T08:37:02.186Z,12.73
2018-04-02T08:39:28.560Z,13.67
2018-04-02T08:41:54.892Z,13.43
2018-04-02T08:44:21.277Z,11.83
2018-04-02T08:46:47.683Z,11.80
2018-04-02T08:49:14.071Z,12.53
2018-04-02T08:51:40.475Z,12.53
2018-04-02T08:54:06.892Z,11.90
2018-04-02T08:56:33.308Z,11.43
2018-04-02T08:58:59.693Z,11.23
2018-04-02T09:01:26.076Z,11.30
2018-04-02T09:03:53.323Z,10.00
2018-04-02T09:06:20.415Z,10.20
2018-04-02T09:08:46.755Z,10.60
2018-04-02T09:11:13.163Z,12.23
2018-04-02T09:13:39.528Z,11.37
2018-04-02T09:16:05.881Z,10.97
2018-04-02T09:18:32.256Z,11.43
2018-04-02T09:20:58.604Z,9.80
2018-04-02T09:44:40.154Z,7.00
2018-04-02T09:47:06.514Z,9.77
2018-04-02T09:49:33.660Z,7.57
2018-04-02T09:52:00.775Z,7.70
2018-04-02T09:54:27.114Z,8.63
2018-04-02T09:56:53.472Z,8.07
2018-04-02T09:59:20.609Z,7.40
2018-04-02T10:01:47.724Z,9.20
2018-04-02T10:04:14.103Z,7.93
2018-04-02T10:06:41.219Z,6.43
2018-04-02T10:09:07.586Z,7.10
2018-04-02T10:11:33.967Z,7.10
2018-04-02T10:14:00.303Z,8.00
2018-04-02T10:16:26.674Z,9.70
2018-04-02T10:18:53.025Z,6.33
2018-04-02T10:21:19.403Z,7.30
2018-04-02T10:23:45.789Z,6.37
2018-04-02T10:26:12.238Z,9.60
2018-04-02T10:28:39.382Z,7.13
2018-04-02T10:31:05.795Z,8.03
2018-04-02T10:33:32.175Z,7.47
2018-04-02T10:35:58.524Z,19.57
2018-04-02T10:38:25.633Z,7.10
2018-04-02T10:40:52.005Z,7.00
2018-04-02T10:43:19.145Z,7.67
2018-04-02T10:45:46.235Z,7.93
2018-04-02T10:48:13.332Z,9.60
2018-04-02T10:50:40.472Z,8.40
2018-04-02T10:53:06.821Z,7.63
2018-04-02T10:55:33.215Z,8.23
2018-04-02T10:57:59.557Z,7.63
2018-04-02T11:00:25.956Z,8.27
2018-04-02T11:02:52.282Z,8.40
2018-04-02T11:05:18.667Z,8.10
2018-04-02T11:07:45.758Z,9.10
2018-04-02T11:10:12.186Z,10.20
2018-04-02T11:12:38.556Z,8.37
2018-04-02T11:15:04.931Z,7.97
2018-04-02T11:17:31.316Z,8.93
2018-04-02T11:19:57.695Z,8.20
2018-04-02T11:22:24.047Z,8.97
2018-04-02T11:24:50.408Z,9.13
2018-04-02T11:27:16.740Z,9.10
2018-04-02T11:29:43.411Z,9.57
2018-04-02T11:32:10.488Z,10.27
2018-04-02T11:34:36.829Z,9.73
2018-04-02T11:37:03.469Z,8.70
2018-04-02T11:39:29.846Z,9.00
2018-04-02T11:41:56.934Z,15.73
2018-04-02T11:44:23.319Z,9.27
2018-04-02T11:46:49.696Z,10.03
2018-04-02T11:49:16.025Z,8.40
2018-04-02T11:51:42.389Z,8.53
2018-04-02T11:54:08.750Z,8.27
2018-04-02T11:56:35.873Z,7.00
2018-04-02T11:59:02.284Z,7.53
2018-04-02T12:01:28.676Z,7.30
2018-04-02T12:03:55.046Z,9.40
2018-04-02T12:06:21.404Z,7.67
2018-04-02T12:08:47.956Z,9.80
2018-04-02T12:11:15.042Z,7.77
2018-04-02T12:13:41.401Z,7.90
2018-04-02T12:16:07.799Z,7.13
2018-04-02T12:18:34.198Z,7.13
2018-04-02T12:21:00.673Z,6.83
2018-04-02T12:23:27.017Z,7.60
2018-04-02T12:25:53.407Z,6.87
2018-04-02T12:28:19.743Z,6.67
2018-04-02T12:30:46.268Z,7.07
2018-04-02T12:33:12.627Z,6.60
2018-04-02T12:35:39.062Z,8.03
2018-04-02T12:38:05.443Z,9.60
2018-04-02T12:40:32.534Z,6.17
2018-04-02T12:42:58.946Z,6.53
2018-04-02T12:45:25.355Z,7.37
2018-04-02T12:47:51.718Z,6.30
2018-04-02T12:50:18.068Z,5.30
2018-04-02T12:52:44.446Z,5.90
2018-04-02T12:55:11.520Z,5.60
2018-04-02T12:57:37.877Z,6.27
2018-04-02T13:00:04.406Z,5.83
2018-04-02T13:02:30.828Z,6.20
2018-04-02T13:04:57.199Z,6.30
2018-04-02T13:07:23.532Z,5.70
2018-04-02T13:09:49.924Z,6.50
2018-04-02T13:12:16.293Z,5.50
2018-04-02T13:14:42.620Z,6.70
2018-04-02T13:17:09.004Z,6.77
2018-04-02T13:19:35.412Z,7.00
2018-04-02T13:22:02.561Z,6.03
2018-04-02T13:24:28.925Z,6.97
2018-04-02T13:26:55.276Z,7.17
2018-04-02T13:29:21.655Z,6.50
2018-04-02T13:31:48.735Z,5.90
2018-04-02T13:34:15.849Z,6.53
2018-04-02T13:36:42.189Z,6.60
2018-04-02T13:39:08.592Z,6.00
2018-04-02T13:41:35.719Z,6.53
2018-04-02T13:44:02.098Z,6.83
2018-04-02T13:46:28.479Z,9.17
2018-04-02T13:48:54.859Z,6.70
2018-04-02T13:51:21.198Z,7.87
2018-04-02T13:53:47.564Z,7.73
2018-04-02T13:56:13.963Z,7.20
2018-04-02T13:58:40.318Z,7.07
2018-04-02T14:01:06.664Z,7.97
2018-04-02T14:03:33.085Z,7.33
2018-04-02T14:05:59.451Z,7.00
2018-04-02T14:08:26.536Z,7.57
2018-04-02T14:10:53.019Z,7.47
2018-04-02T14:13:19.392Z,8.77
2018-04-02T14:15:45.740Z,7.80
2018-04-02T14:18:12.101Z,7.93
2018-04-02T14:20:39.416Z,7.37
2018-04-02T14:23:05.882Z,8.50
2018-04-02T14:25:32.237Z,7.57
2018-04-02T14:27:59.340Z,8.00
2018-04-02T14:30:25.695Z,7.73
2018-04-02T14:32:52.106Z,8.27
2018-04-02T14:35:18.476Z,7.20
2018-04-02T14:37:45.591Z,7.90
2018-04-02T14:40:11.926Z,6.70
2018-04-02T14:42:38.276Z,6.77
2018-04-02T14:45:05.407Z,7.53
2018-04-02T14:47:31.750Z,7.67
2018-04-02T14:49:58.916Z,7.37
2018-04-02T14:52:26.005Z,8.20
2018-04-02T14:54:52.648Z,7.87
2018-04-02T14:57:18.996Z,8.13
2018-04-02T14:59:46.173Z,6.43
2018-04-02T15:02:13.396Z,7.80
2018-04-02T15:04:39.743Z,7.70
2018-04-02T15:07:06.082Z,7.40
2018-04-02T15:09:33.243Z,7.10
2018-04-02T15:12:00.349Z,8.53
2018-04-02T15:14:26.698Z,7.20
2018-04-02T15:16:53.063Z,7.60
2018-04-02T15:19:19.431Z,7.10
2018-04-02T15:21:45.773Z,7.47
2018-04-02T15:24:12.140Z,7.77
2018-04-02T15:26:39.266Z,8.47
2018-04-02T15:29:05.659Z,7.10
2018-04-02T15:31:32.001Z,7.17
2018-04-02T15:33:58.368Z,6.90
2018-04-02T15:36:25.449Z,6.70
2018-04-02T15:38:52.095Z,7.10
2018-04-02T15:41:18.455Z,6.23
2018-04-02T15:43:44.803Z,7.37
2018-04-02T15:46:11.178Z,8.40
2018-04-02T15:48:37.515Z,8.20
2018-04-02T15:51:03.895Z,7.60
2018-04-02T15:53:30.232Z,7.63
2018-04-02T15:55:57.359Z,9.03
2018-04-02T15:58:23.761Z,9.90
2018-04-02T16:00:50.122Z,9.03
2018-04-02T16:03:16.465Z,8.90
2018-04-02T16:05:43.139Z,8.97
2018-04-02T16:08:09.518Z,7.90
2018-04-02T16:10:35.904Z,8.90
2018-04-02T16:13:02.300Z,8.53
2018-04-02T16:15:28.698Z,8.90
2018-04-02T16:17:55.042Z,9.23
2018-04-02T16:20:21.407Z,9.27
2018-04-02T16:22:47.780Z,8.93
2018-04-02T16:25:14.138Z,10.50
2018-04-02T16:27:40.543Z,8.90
2018-04-02T16:30:06.900Z,9.27
2018-04-02T16:32:33.307Z,7.87
2018-04-02T16:34:59.651Z,8.00
2018-04-02T16:37:26.003Z,8.03
2018-04-02T16:39:53.146Z,8.37
2018-04-02T16:42:19.804Z,8.93
2018-04-02T16:44:46.159Z,9.27
2018-04-02T16:47:12.503Z,8.70
2018-04-02T16:49:38.878Z,8.20
2018-04-02T16:52:05.210Z,8.93
2018-04-02T16:54:31.603Z,7.17
2018-04-02T16:56:57.967Z,6.60
2018-04-02T16:59:24.435Z,6.33
2018-04-02T17:01:50.809Z,7.17
2018-04-02T17:04:17.171Z,6.93
2018-04-02T17:06:44.288Z,7.10
2018-04-02T17:09:10.618Z,6.50
2018-04-02T17:11:37.309Z,6.90
2018-04-02T17:14:03.713Z,6.73
2018-04-02T17:16:30.818Z,6.00
2018-04-02T17:18:57.205Z,5.93
2018-04-02T17:21:24.323Z,6.10
2018-04-02T17:23:50.726Z,6.37
2018-04-02T17:26:17.066Z,5.80
2018-04-02T17:28:43.411Z,6.27
2018-04-02T17:31:10.038Z,6.33
2018-04-02T17:33:36.459Z,6.20
2018-04-02T17:36:03.003Z,6.20
2018-04-02T17:38:29.348Z,6.30
2018-04-02T17:40:55.705Z,5.70
2018-04-02T17:43:22.154Z,5.70
2018-04-02T17:45:48.578Z,6.30
2018-04-02T17:48:15.663Z,5.47
2018-04-02T17:50:42.017Z,5.10
2018-04-02T17:53:08.412Z,5.93
2018-04-02T17:55:34.779Z,6.00
2018-04-02T17:58:01.180Z,5.80
2018-04-02T18:00:27.549Z,5.37
2018-04-02T18:02:53.937Z,5.80
2018-04-02T18:05:20.362Z,6.30
2018-04-02T18:07:46.770Z,5.63
2018-04-02T18:10:13.844Z,7.50
2018-04-02T18:12:40.236Z,6.53
2018-04-02T18:15:07.353Z,7.43
2018-04-02T18:17:33.723Z,6.40
2018-04-02T18:20:00.804Z,6.87
2018-04-02T18:22:27.192Z,9.23
2018-04-02T18:24:54.332Z,6.83
2018-04-02T18:27:20.673Z,5.60
2018-04-02T18:29:47.799Z,6.10
2018-04-02T18:32:14.162Z,5.97
2018-04-02T18:34:41.271Z,6.30
2018-04-02T18:37:07.631Z,6.60
2018-04-02T18:39:34.782Z,6.83
2018-04-02T18:42:01.898Z,6.77
2018-04-02T18:44:28.290Z,6.93
2018-04-02T18:46:54.638Z,7.03
2018-04-02T18:49:21.004Z,7.10
2018-04-02T18:51:47.377Z,7.17
2018-04-02T18:54:13.723Z,7.20
2018-04-02T18:56:40.113Z,7.03
2018-04-02T18:59:07.186Z,6.50
2018-04-02T19:01:33.566Z,11.90
2018-04-02T19:03:59.929Z,7.33
2018-04-02T19:06:27.111Z,8.77
2018-04-02T19:08:53.432Z,7.50
2018-04-02T19:11:19.836Z,7.50
2018-04-02T19:13:46.923Z,6.90
2018-04-02T19:16:13.320Z,6.90
2018-04-02T19:18:39.692Z,7.30
2018-04-02T19:21:06.071Z,8.17
2018-04-02T19:23:33.174Z,9.43
2018-04-02T19:25:59.565Z,7.17
2018-04-02T19:28:25.922Z,7.97
2018-04-02T19:30:52.315Z,7.37
2018-04-02T19:33:19.424Z,7.20
2018-04-02T19:35:46.787Z,7.37
2018-04-02T19:38:13.128Z,8.10
2018-04-02T19:40:40.228Z,8.23
2018-04-02T19:43:06.585Z,7.73
2018-04-02T19:45:32.957Z,7.57
2018-04-02T19:48:00.069Z,10.23
2018-04-02T19:50:26.444Z,8.27
2018-04-02T19:52:53.537Z,8.63
2018-04-02T19:55:19.923Z,8.63
2018-04-02T19:57:46.255Z,9.00
2018-04-02T20:00:12.818Z,10.20
2018-04-02T20:02:39.236Z,10.03
2018-04-02T20:05:05.564Z,9.47
2018-04-02T20:07:32.035Z,9.40
2018-04-02T20:09:58.370Z,9.90
2018-04-02T20:12:24.730Z,10.07
2018-04-02T20:14:51.844Z,9.20
2018-04-02T20:17:18.315Z,9.20
2018-04-02T20:19:45.419Z,9.10
2018-04-02T20:22:11.789Z,9.07
2018-04-02T20:24:38.864Z,9.47
2018-04-02T20:27:06.009Z,10.07
2018-04-02T20:29:32.365Z,10.00
2018-04-02T20:31:58.723Z,10.50
2018-04-02T20:34:25.824Z,10.30
2018-04-02T20:36:52.194Z,9.33
2018-04-02T20:39:18.557Z,9.43
2018-04-02T20:41:44.922Z,10.20
2018-04-02T20:44:11.295Z,10.97
2018-04-02T20:46:38.398Z,10.13
2018-04-02T20:49:04.750Z,10.77
2018-04-02T20:51:31.131Z,10.37
2018-04-02T20:53:57.472Z,10.40
2018-04-02T20:56:23.851Z,9.80
2018-04-02T20:58:50.215Z,9.90
2018-04-02T21:01:16.608Z,10.00
2018-04-02T21:03:42.983Z,11.20
2018-04-02T21:06:10.066Z,10.63
2018-04-02T21:08:36.451Z,11.17
2018-04-02T21:11:03.544Z,10.70
2018-04-02T21:13:30.022Z,10.40
2018-04-02T21:15:56.362Z,11.77
2018-04-02T21:18:23.450Z,11.90
2018-04-02T21:20:49.834Z,10.40
2018-04-02T21:23:16.930Z,10.93
2018-04-02T21:25:43.290Z,10.80
2018-04-02T21:28:09.648Z,9.70
2018-04-02T21:30:36.728Z,11.43
2018-04-02T21:33:03.098Z,11.23
2018-04-02T21:35:29.440Z,12.73
2018-04-02T21:37:55.990Z,10.50
2018-04-02T21:40:22.312Z,11.83
2018-04-02T21:42:49.399Z,11.00
2018-04-02T21:45:15.755Z,10.70
2018-04-02T21:47:42.338Z,12.53
2018-04-02T21:50:09.461Z,11.60
2018-04-02T21:52:35.809Z,11.50
2018-04-02T21:55:02.941Z,12.10
2018-04-02T21:57:29.291Z,12.37
2018-04-02T21:59:55.649Z,13.33
2018-04-02T22:02:22.044Z,13.10
2018-04-02T22:04:48.419Z,12.90
2018-04-02T22:07:14.798Z,14.00
2018-04-02T22:09:41.135Z,13.70
2018-04-02T22:12:08.222Z,16.10
2018-04-02T22:14:34.608Z,14.90
2018-04-02T22:17:00.949Z,15.90
2018-04-02T22:19:27.345Z,16.40
2018-04-02T22:21:53.728Z,15.93
2018-04-02T22:24:20.103Z,14.70
2018-04-02T22:26:46.437Z,16.90
2018-04-02T22:29:12.795Z,15.40
2018-04-02T22:31:39.160Z,16.00
2018-04-02T22:34:05.511Z,16.17
2018-04-02T22:36:31.919Z,16.40
2018-04-02T22:38:58.259Z,16.90
2018-04-02T22:41:24.628Z,16.80
2018-04-02T22:43:51.113Z,17.40
2018-04-02T22:46:17.492Z,18.70
2018-04-02T22:48:43.875Z,18.23
2018-04-02T22:51:10.241Z,17.43
2018-04-02T22:53:36.847Z,17.07
2018-04-02T22:56:03.207Z,19.63
2018-04-02T22:58:29.553Z,18.97
2018-04-02T23:00:55.934Z,19.00
2018-04-02T23:03:22.315Z,17.90
2018-04-02T23:05:48.704Z,18.17
2018-04-02T23:08:15.043Z,18.90
2018-04-02T23:10:41.638Z,17.20
2018-04-02T23:13:08.743Z,19.70
2018-04-02T23:15:35.099Z,18.77
2018-04-02T23:18:02.247Z,19.00
2018-04-02T23:20:29.376Z,18.47
2018-04-02T23:22:55.879Z,20.10
2018-04-02T23:25:22.226Z,23.17
2018-04-02T23:27:48.562Z,21.77
2018-04-02T23:30:15.728Z,22.97
2018-04-02T23:32:42.071Z,23.30
2018-04-02T23:35:08.714Z,22.93
2018-04-02T23:37:35.804Z,23.30
2018-04-02T23:40:02.183Z,24.83
2018-04-02T23:42:28.578Z,25.63
2018-04-02T23:44:54.922Z,25.30
2018-04-02T23:47:22.189Z,25.57
2018-04-02T23:49:48.534Z,26.20
2018-04-02T23:52:15.625Z,26.90
2018-04-02T23:54:42.018Z,29.23
2018-04-02T23:57:09.092Z,29.20
2018-04-02T23:59:35.477Z,29.80
